Time;durP1;ratioP1;P1;durP2;ratioP2;P2;SDS_P1;SDS_P2;PMS_P1;PMS_P2;Temp;Humidity;BMP_temperature;BMP_pressure;BME280_temperature;BME280_humidity;BME280_pressure;Samples;Min_cycle;Max_cycle;Signal;HPM_P1;HPM_P2
2022/08/05 00:00:09;;;;;;;2.47;2.33;;;;;;;;;;4977200;28;20232;-65
2022/08/05 00:02:36;;;;;;;2.75;2.45;;;;;;;;;;4964485;28;20202;-65
2022/08/05 00:05:03;;;;;;;4.55;2.45;;;;;;;;;;4981576;28;20622;-66
2022/08/05 00:07:30;;;;;;;5.68;2.50;;;;;;;;;;4989332;28;20353;-66
2022/08/05 00:09:57;;;;;;;5.70;2.85;;;;;;;;;;4986289;28;20648;-67
2022/08/05 00:12:24;;;;;;;9.05;3.63;;;;;;;;;;4970691;28;20366;-67
2022/08/05 00:14:52;;;;;;;9.85;4.00;;;;;;;;;;4971219;28;20218;-66
2022/08/05 00:17:19;;;;;;;3.58;3.30;;;;;;;;;;4969885;28;20214;-68
2022/08/05 00:19:46;;;;;;;4.53;3.80;;;;;;;;;;4976509;28;20215;-69
2022/08/05 00:22:13;;;;;;;8.38;5.00;;;;;;;;;;4971664;28;20620;-69
2022/08/05 00:24:41;;;;;;;8.85;4.45;;;;;;;;;;4974478;28;20213;-69
2022/08/05 00:27:08;;;;;;;5.45;4.68;;;;;;;;;;4971322;28;20207;-70
2022/08/05 00:29:35;;;;;;;5.20;4.70;;;;;;;;;;4972626;28;20309;-70
2022/08/05 00:32:04;;;;;;;7.50;4.93;;;;;;;;;;4983648;28;20720;-70
2022/08/05 00:34:31;;;;;;;5.20;4.70;;;;;;;;;;4977785;28;20207;-70
2022/08/05 00:36:58;;;;;;;6.93;4.90;;;;;;;;;;4980873;28;20276;-70
2022/08/05 00:39:25;;;;;;;7.50;4.97;;;;;;;;;;4985791;28;20308;-70
2022/08/05 00:41:52;;;;;;;5.20;4.55;;;;;;;;;;4973135;28;20257;-70
2022/08/05 00:44:19;;;;;;;4.82;4.50;;;;;;;;;;4973194;28;20273;-69
2022/08/05 00:46:46;;;;;;;5.85;4.07;;;;;;;;;;4977156;28;20215;-70
2022/08/05 00:49:24;;;;;;;6.57;4.35;;;;;;;;;;4984615;28;20834;-70
2022/08/05 00:51:51;;;;;;;4.85;3.65;;;;;;;;;;4986464;28;20229;-69
2022/08/05 00:54:18;;;;;;;3.30;2.97;;;;;;;;;;4977817;28;20703;-69
2022/08/05 00:56:45;;;;;;;6.75;3.40;;;;;;;;;;4976511;28;20218;-70
2022/08/05 00:59:12;;;;;;;2.95;2.10;;;;;;;;;;4971193;28;20257;-70
2022/08/05 01:01:40;;;;;;;5.28;3.00;;;;;;;;;;4971015;28;20202;-70
2022/08/05 01:04:07;;;;;;;5.10;2.75;;;;;;;;;;4982489;28;20202;-70
2022/08/05 01:06:35;;;;;;;5.15;2.63;;;;;;;;;;4978114;28;20824;-69
2022/08/05 01:09:04;;;;;;;6.65;2.63;;;;;;;;;;4969103;28;20222;-70
2022/08/05 01:11:33;;;;;;;5.03;2.55;;;;;;;;;;4968554;28;20312;-71
2022/08/05 01:14:04;;;;;;;2.78;2.60;;;;;;;;;;4968245;28;20206;-70
2022/08/05 01:16:37;;;;;;;2.85;2.22;;;;;;;;;;4970914;28;20669;-70
2022/08/05 01:19:10;;;;;;;5.78;2.38;;;;;;;;;;4969329;28;20206;-70
2022/08/05 01:21:47;;;;;;;3.38;2.65;;;;;;;;;;4970313;28;20529;-70
2022/08/05 01:24:20;;;;;;;2.92;2.70;;;;;;;;;;4970346;28;20206;-70
2022/08/05 01:26:54;;;;;;;4.10;2.38;;;;;;;;;;4969731;28;20622;-70
2022/08/05 01:29:27;;;;;;;3.22;2.67;;;;;;;;;;4978208;28;20693;-69
2022/08/05 01:31:55;;;;;;;3.90;2.35;;;;;;;;;;4971081;28;20285;-70
2022/08/05 01:34:24;;;;;;;2.55;2.45;;;;;;;;;;4970529;28;20202;-69
2022/08/05 01:36:54;;;;;;;2.40;2.30;;;;;;;;;;4967035;28;20261;-70
2022/08/05 01:39:22;;;;;;;6.00;2.58;;;;;;;;;;4982393;28;20278;-70
2022/08/05 01:41:49;;;;;;;2.38;2.17;;;;;;;;;;4980464;28;20197;-70
2022/08/05 01:44:17;;;;;;;2.10;2.00;;;;;;;;;;4985732;28;20873;-70
2022/08/05 01:46:46;;;;;;;4.63;2.15;;;;;;;;;;4976341;28;20280;-70
2022/08/05 01:49:16;;;;;;;3.05;2.13;;;;;;;;;;4970522;28;20565;-70
2022/08/05 01:51:43;;;;;;;3.60;2.05;;;;;;;;;;4972750;28;20701;-70
2022/08/05 01:54:11;;;;;;;3.90;2.42;;;;;;;;;;4970895;28;20265;-69
2022/08/05 01:56:39;;;;;;;2.97;2.60;;;;;;;;;;4984772;28;20239;-70
2022/08/05 01:59:08;;;;;;;3.08;2.97;;;;;;;;;;4984140;28;20209;-70
2022/08/05 02:01:36;;;;;;;3.90;3.13;;;;;;;;;;4970449;28;20213;-71
2022/08/05 02:04:05;;;;;;;3.40;3.20;;;;;;;;;;4970397;28;20217;-70
2022/08/05 02:06:33;;;;;;;3.50;3.20;;;;;;;;;;4970797;28;20731;-69
2022/08/05 02:09:00;;;;;;;3.30;3.08;;;;;;;;;;4971948;28;20630;-70
2022/08/05 02:11:33;;;;;;;3.88;3.10;;;;;;;;;;4979067;28;20250;-70
2022/08/05 02:14:01;;;;;;;4.28;3.13;;;;;;;;;;4986764;28;20236;-70
2022/08/05 02:16:31;;;;;;;4.10;3.10;;;;;;;;;;4978788;28;20210;-70
2022/08/05 02:19:01;;;;;;;3.75;2.90;;;;;;;;;;4982536;28;20316;-69
2022/08/05 02:21:31;;;;;;;4.32;2.83;;;;;;;;;;4969980;28;20214;-69
2022/08/05 02:24:01;;;;;;;3.17;2.88;;;;;;;;;;4970131;28;20218;-70
2022/08/05 02:26:34;;;;;;;3.63;3.00;;;;;;;;;;4969494;28;20210;-70
2022/08/05 02:29:15;;;;;;;3.38;2.97;;;;;;;;;;4984216;28;20209;-70
2022/08/05 02:31:45;;;;;;;2.63;2.42;;;;;;;;;;4988091;28;20283;-68
2022/08/05 02:34:12;;;;;;;2.67;2.47;;;;;;;;;;4979319;28;20241;-70
2022/08/05 02:36:42;;;;;;;2.60;2.22;;;;;;;;;;4974935;28;20222;-70
2022/08/05 02:39:10;;;;;;;2.47;2.38;;;;;;;;;;4992483;28;20205;-71
2022/08/05 02:41:38;;;;;;;4.38;2.47;;;;;;;;;;4991387;28;20264;-70
2022/08/05 02:44:07;;;;;;;5.60;2.40;;;;;;;;;;4992678;28;20213;-71
2022/08/05 02:46:36;;;;;;;6.63;3.20;;;;;;;;;;4986903;28;20740;-70
2022/08/05 02:49:03;;;;;;;3.17;2.63;;;;;;;;;;4973997;28;20245;-70
2022/08/05 02:51:30;;;;;;;2.30;2.17;;;;;;;;;;4982103;28;20217;-70
2022/08/05 02:53:59;;;;;;;4.20;2.28;;;;;;;;;;4991947;28;20260;-70
2022/08/05 02:56:27;;;;;;;2.55;2.03;;;;;;;;;;4978736;28;20253;-70
2022/08/05 02:58:54;;;;;;;3.25;2.03;;;;;;;;;;4981519;28;20214;-70
2022/08/05 03:01:25;;;;;;;2.55;2.15;;;;;;;;;;4986964;28;20214;-70
2022/08/05 03:03:53;;;;;;;3.33;2.45;;;;;;;;;;4987327;28;20205;-70
2022/08/05 03:06:21;;;;;;;2.15;2.15;;;;;;;;;;4977764;28;20213;-69
2022/08/05 03:08:50;;;;;;;2.60;2.45;;;;;;;;;;4973956;28;20675;-70
2022/08/05 03:11:20;;;;;;;2.42;2.17;;;;;;;;;;4977913;28;20202;-71
2022/08/05 03:13:47;;;;;;;3.63;2.30;;;;;;;;;;4974412;28;20222;-69
2022/08/05 03:16:14;;;;;;;2.70;2.60;;;;;;;;;;4974467;28;20210;-70
2022/08/05 03:18:41;;;;;;;4.05;2.78;;;;;;;;;;4973325;28;20858;-69
2022/08/05 03:21:09;;;;;;;2.50;2.40;;;;;;;;;;4970852;28;20265;-70
2022/08/05 03:23:37;;;;;;;2.83;2.75;;;;;;;;;;4971247;28;20202;-70
2022/08/05 03:26:04;;;;;;;2.47;2.38;;;;;;;;;;4971542;28;20285;-70
2022/08/05 03:28:33;;;;;;;2.90;2.70;;;;;;;;;;4974906;28;20265;-70
2022/08/05 03:31:00;;;;;;;2.88;2.33;;;;;;;;;;4973858;28;20203;-69
2022/08/05 03:33:28;;;;;;;3.25;2.95;;;;;;;;;;4984920;28;20230;-69
2022/08/05 03:35:55;;;;;;;4.15;2.83;;;;;;;;;;4980197;28;20205;-68
2022/08/05 03:38:23;;;;;;;2.88;2.70;;;;;;;;;;4971144;28;20206;-68
2022/08/05 03:40:52;;;;;;;3.92;2.85;;;;;;;;;;4971002;28;20747;-69
2022/08/05 03:43:19;;;;;;;5.80;3.15;;;;;;;;;;4972237;28;20202;-69
2022/08/05 03:45:47;;;;;;;3.13;2.90;;;;;;;;;;4969756;28;20626;-69
2022/08/05 03:48:14;;;;;;;3.22;3.03;;;;;;;;;;4984792;28;20284;-71
2022/08/05 03:50:43;;;;;;;4.03;3.20;;;;;;;;;;4973079;28;20210;-69
2022/08/05 03:53:13;;;;;;;5.13;3.75;;;;;;;;;;4983920;28;20829;-69
2022/08/05 03:55:43;;;;;;;4.32;3.50;;;;;;;;;;4976230;28;20210;-70
2022/08/05 03:58:11;;;;;;;4.32;3.80;;;;;;;;;;4977846;28;20215;-69
2022/08/05 04:00:39;;;;;;;5.13;4.28;;;;;;;;;;4982608;28;20214;-70
2022/08/05 04:03:08;;;;;;;14.93;4.72;;;;;;;;;;4986504;28;20198;-70
2022/08/05 04:05:36;;;;;;;12.45;5.10;;;;;;;;;;4976085;28;20215;-70
2022/08/05 04:08:04;;;;;;;9.13;4.45;;;;;;;;;;4984526;28;20211;-70
2022/08/05 04:10:31;;;;;;;6.70;5.10;;;;;;;;;;4982174;28;20209;-70
2022/08/05 04:12:58;;;;;;;6.00;4.80;;;;;;;;;;4972125;28;20234;-70
2022/08/05 04:15:25;;;;;;;8.43;4.57;;;;;;;;;;4972280;28;20211;-70
2022/08/05 04:17:52;;;;;;;7.93;4.55;;;;;;;;;;4972454;28;20833;-70
2022/08/05 04:20:21;;;;;;;5.25;4.68;;;;;;;;;;4971953;28;20223;-70
2022/08/05 04:22:48;;;;;;;6.75;4.93;;;;;;;;;;4972292;28;20720;-70
2022/08/05 04:25:15;;;;;;;10.20;4.82;;;;;;;;;;4970694;28;20261;-69
2022/08/05 04:27:42;;;;;;;6.57;4.40;;;;;;;;;;4970675;28;20638;-69
2022/08/05 04:30:10;;;;;;;5.50;4.50;;;;;;;;;;4979231;28;20214;-69
2022/08/05 04:32:37;;;;;;;11.20;5.65;;;;;;;;;;4985365;28;20217;-69
2022/08/05 04:35:04;;;;;;;7.90;4.40;;;;;;;;;;4980926;28;20213;-69
2022/08/05 04:37:33;;;;;;;6.22;5.35;;;;;;;;;;4976555;28;20210;-68
2022/08/05 04:40:00;;;;;;;5.82;4.65;;;;;;;;;;4978269;28;20205;-69
2022/08/05 04:42:27;;;;;;;4.93;4.63;;;;;;;;;;4970052;28;20637;-69
2022/08/05 04:44:54;;;;;;;6.20;4.47;;;;;;;;;;4970075;28;20209;-69
2022/08/05 04:47:21;;;;;;;6.88;4.72;;;;;;;;;;4969443;28;20203;-69
2022/08/05 04:49:48;;;;;;;5.43;4.70;;;;;;;;;;4983542;28;20246;-69
2022/08/05 04:52:15;;;;;;;5.82;5.32;;;;;;;;;;4971650;28;20210;-69
2022/08/05 04:54:43;;;;;;;7.95;5.45;;;;;;;;;;4971595;28;20214;-69
2022/08/05 04:57:10;;;;;;;6.88;5.05;;;;;;;;;;4975366;28;20245;-69
2022/08/05 04:59:40;;;;;;;6.40;4.47;;;;;;;;;;4983243;28;20329;-69
2022/08/05 05:02:07;;;;;;;5.78;4.88;;;;;;;;;;4979832;28;20665;-69
2022/08/05 05:04:34;;;;;;;5.43;4.93;;;;;;;;;;4976996;28;20221;-69
2022/08/05 05:07:01;;;;;;;7.15;4.40;;;;;;;;;;4971662;28;20256;-67
2022/08/05 05:09:28;;;;;;;6.82;5.13;;;;;;;;;;4979995;28;20382;-67
2022/08/05 05:11:57;;;;;;;9.15;5.30;;;;;;;;;;4985289;28;20197;-66
2022/08/05 05:14:24;;;;;;;7.55;5.38;;;;;;;;;;4976678;28;20488;-66
2022/08/05 05:16:51;;;;;;;7.13;5.43;;;;;;;;;;4973099;28;20280;-67
2022/08/05 05:19:18;;;;;;;6.47;5.65;;;;;;;;;;4970254;28;21503;-66
2022/08/05 05:21:45;;;;;;;6.82;5.97;;;;;;;;;;4979218;28;20212;-66
2022/08/05 05:24:13;;;;;;;7.18;6.40;;;;;;;;;;4977339;28;20197;-67
2022/08/05 05:26:40;;;;;;;12.75;6.05;;;;;;;;;;4968269;28;20588;-66
2022/08/05 05:29:08;;;;;;;8.23;5.80;;;;;;;;;;4979458;28;20750;-67
2022/08/05 05:31:35;;;;;;;9.45;6.97;;;;;;;;;;4977913;28;20664;-69
2022/08/05 05:34:02;;;;;;;6.95;5.75;;;;;;;;;;4984764;28;20214;-68
2022/08/05 05:36:30;;;;;;;5.97;5.57;;;;;;;;;;4977266;28;20218;-64
2022/08/05 05:38:57;;;;;;;5.60;5.20;;;;;;;;;;4975052;28;20886;-64
2022/08/05 05:41:24;;;;;;;6.10;5.10;;;;;;;;;;4976317;28;20212;-64
2022/08/05 05:43:51;;;;;;;7.55;5.40;;;;;;;;;;4969809;28;20666;-64
2022/08/05 05:46:20;;;;;;;5.10;4.80;;;;;;;;;;4970119;28;20202;-64
2022/08/05 05:48:47;;;;;;;5.63;4.70;;;;;;;;;;4967799;28;20300;-64
2022/08/05 05:51:18;;;;;;;5.18;4.78;;;;;;;;;;4967967;28;20261;-64
2022/08/05 05:53:45;;;;;;;6.70;5.05;;;;;;;;;;4970113;28;20276;-65
2022/08/05 05:56:12;;;;;;;4.55;4.25;;;;;;;;;;4977853;28;20252;-64
2022/08/05 05:58:39;;;;;;;8.52;4.65;;;;;;;;;;4980256;28;20232;-65
2022/08/05 06:01:06;;;;;;;5.32;4.65;;;;;;;;;;4977955;28;20210;-64
2022/08/05 06:03:34;;;;;;;3.90;3.50;;;;;;;;;;4982208;28;20198;-64
2022/08/05 06:06:01;;;;;;;4.80;4.43;;;;;;;;;;4982219;28;20210;-65
2022/08/05 06:08:28;;;;;;;4.70;4.40;;;;;;;;;;4969177;28;20210;-65
2022/08/05 06:10:55;;;;;;;4.80;4.00;;;;;;;;;;4970587;28;20214;-65
2022/08/05 06:13:22;;;;;;;6.40;4.88;;;;;;;;;;4971763;28;20662;-65
2022/08/05 06:15:49;;;;;;;4.95;4.55;;;;;;;;;;4971832;28;20264;-65
2022/08/05 06:18:16;;;;;;;6.07;4.35;;;;;;;;;;4981583;28;20295;-64
2022/08/05 06:20:45;;;;;;;6.25;3.70;;;;;;;;;;4989569;28;20214;-65
2022/08/05 06:23:12;;;;;;;3.75;3.47;;;;;;;;;;4972826;28;20195;-64
2022/08/05 06:25:39;;;;;;;5.28;4.80;;;;;;;;;;4971892;28;20474;-65
2022/08/05 06:28:06;;;;;;;3.97;3.67;;;;;;;;;;4972837;28;20665;-65
2022/08/05 06:30:33;;;;;;;3.90;3.60;;;;;;;;;;4984896;28;20209;-65
2022/08/05 06:33:00;;;;;;;4.05;3.47;;;;;;;;;;4982804;28;20250;-65
2022/08/05 06:35:27;;;;;;;3.75;3.55;;;;;;;;;;4971875;28;20230;-65
2022/08/05 06:37:55;;;;;;;3.78;3.50;;;;;;;;;;4971813;28;20220;-65
2022/08/05 06:40:23;;;;;;;3.97;3.67;;;;;;;;;;4972117;28;20673;-66
2022/08/05 06:42:50;;;;;;;3.72;3.53;;;;;;;;;;4976175;28;20234;-65
2022/08/05 06:45:17;;;;;;;4.20;3.67;;;;;;;;;;4974537;28;20210;-65
2022/08/05 06:47:44;;;;;;;4.25;3.83;;;;;;;;;;4973796;28;20389;-65
2022/08/05 06:50:11;;;;;;;4.55;3.25;;;;;;;;;;4977373;28;20245;-66
2022/08/05 06:52:38;;;;;;;3.78;3.47;;;;;;;;;;4988454;28;21993;-64
2022/08/05 06:55:07;;;;;;;4.53;3.70;;;;;;;;;;4989726;28;20230;-65
2022/08/05 06:57:34;;;;;;;3.88;3.60;;;;;;;;;;4981184;28;20701;-64
2022/08/05 07:00:02;;;;;;;3.30;3.13;;;;;;;;;;4988270;28;20202;-66
2022/08/05 07:02:29;;;;;;;3.70;3.50;;;;;;;;;;4979387;28;20712;-65
2022/08/05 07:04:56;;;;;;;3.35;3.05;;;;;;;;;;4986784;28;20248;-64
2022/08/05 07:07:23;;;;;;;3.63;3.33;;;;;;;;;;4981561;28;20257;-65
2022/08/05 07:09:50;;;;;;;2.90;2.80;;;;;;;;;;4980215;28;20202;-64
2022/08/05 07:17:44;;;;;;;3.85;3.30;;;;;;;;;;4989123;28;20291;-62
2022/08/05 07:20:11;;;;;;;3.63;3.28;;;;;;;;;;4980863;28;20276;-62
2022/08/05 07:22:38;;;;;;;5.35;3.50;;;;;;;;;;4976196;28;20627;-63
2022/08/05 07:25:07;;;;;;;4.70;3.20;;;;;;;;;;4981852;28;20618;-62
2022/08/05 07:27:36;;;;;;;3.13;2.80;;;;;;;;;;4974718;28;20218;-64
2022/08/05 07:30:03;;;;;;;3.15;3.00;;;;;;;;;;4982779;28;20209;-65
2022/08/05 07:32:30;;;;;;;3.70;2.83;;;;;;;;;;4982108;28;20217;-65
2022/08/05 07:34:57;;;;;;;3.72;2.67;;;;;;;;;;4983332;28;20237;-65
2022/08/05 07:37:24;;;;;;;3.30;2.88;;;;;;;;;;4976455;28;20261;-65
2022/08/05 07:39:51;;;;;;;3.22;3.13;;;;;;;;;;4974816;28;20301;-61
2022/08/05 07:42:18;;;;;;;3.03;2.80;;;;;;;;;;4990442;28;20260;-63
2022/08/05 07:44:47;;;;;;;3.03;2.70;;;;;;;;;;4980944;28;20268;-64
2022/08/05 07:47:14;;;;;;;3.17;2.88;;;;;;;;;;4979995;28;20691;-64
2022/08/05 07:49:41;;;;;;;3.30;2.28;;;;;;;;;;4978009;28;20279;-65
2022/08/05 07:52:09;;;;;;;3.40;3.17;;;;;;;;;;4972493;28;20265;-64
2022/08/05 07:54:36;;;;;;;2.90;2.75;;;;;;;;;;5003967;28;20233;-64
2022/08/05 07:57:03;;;;;;;3.00;2.80;;;;;;;;;;4987599;28;20198;-72
2022/08/05 07:59:30;;;;;;;5.78;2.53;;;;;;;;;;4990979;28;20265;-64
2022/08/05 08:02:24;;;;;;;3.30;3.10;;;;;;;;;;4972918;28;20391;-64
2022/08/05 08:04:52;;;;;;;2.92;2.75;;;;;;;;;;4972966;28;20297;-64
2022/08/05 08:07:19;;;;;;;2.75;2.75;;;;;;;;;;4972444;28;20676;-64
2022/08/05 08:09:46;;;;;;;2.45;2.35;;;;;;;;;;4991671;28;20210;-64
2022/08/05 08:12:14;;;;;;;2.60;2.50;;;;;;;;;;4991273;28;20217;-64
2022/08/05 08:14:41;;;;;;;2.60;2.50;;;;;;;;;;4978423;28;20235;-65
2022/08/05 08:17:09;;;;;;;2.80;2.53;;;;;;;;;;4982672;28;20210;-66
2022/08/05 08:19:36;;;;;;;2.88;2.58;;;;;;;;;;4980908;28;20206;-67
2022/08/05 08:22:04;;;;;;;2.85;2.58;;;;;;;;;;4983980;28;20699;-68
2022/08/05 08:24:32;;;;;;;2.50;2.40;;;;;;;;;;4990207;28;20795;-67
2022/08/05 08:26:59;;;;;;;2.85;2.40;;;;;;;;;;4991313;28;20291;-67
2022/08/05 08:29:26;;;;;;;2.55;2.45;;;;;;;;;;4989401;28;20214;-68
2022/08/05 08:31:53;;;;;;;2.90;2.60;;;;;;;;;;4980200;28;20206;-67
2022/08/05 08:34:22;;;;;;;3.15;2.70;;;;;;;;;;4990251;28;20225;-67
2022/08/05 08:36:49;;;;;;;3.55;2.75;;;;;;;;;;4991377;28;20665;-66
2022/08/05 08:39:17;;;;;;;3.38;2.60;;;;;;;;;;4991301;28;20276;-66
2022/08/05 08:41:45;;;;;;;2.50;2.50;;;;;;;;;;4991467;28;20218;-67
2022/08/05 08:44:12;;;;;;;2.92;2.60;;;;;;;;;;4990263;28;20209;-66
2022/08/05 08:46:39;;;;;;;2.50;2.40;;;;;;;;;;4971331;28;20214;-66
2022/08/05 08:49:07;;;;;;;2.85;2.65;;;;;;;;;;4981741;28;20264;-66
2022/08/05 08:51:35;;;;;;;3.20;2.50;;;;;;;;;;5007411;28;20268;-67
2022/08/05 08:54:02;;;;;;;2.90;2.40;;;;;;;;;;4990576;28;20292;-67
2022/08/05 08:56:30;;;;;;;2.25;2.13;;;;;;;;;;4990280;28;20209;-69
2022/08/05 08:58:58;;;;;;;3.30;2.72;;;;;;;;;;4990760;28;20707;-69
2022/08/05 09:01:26;;;;;;;2.22;2.13;;;;;;;;;;4990929;28;20213;-68
2022/08/05 09:03:55;;;;;;;2.70;2.60;;;;;;;;;;4972692;28;20211;-69
2022/08/05 09:06:22;;;;;;;4.03;2.47;;;;;;;;;;4982465;28;20301;-69
2022/08/05 09:08:49;;;;;;;3.53;2.50;;;;;;;;;;4990908;28;20225;-69
2022/08/05 09:11:16;;;;;;;3.13;2.80;;;;;;;;;;4997138;28;20206;-69
2022/08/05 09:13:44;;;;;;;2.60;2.50;;;;;;;;;;4985164;28;20665;-69
2022/08/05 09:16:12;;;;;;;2.78;2.58;;;;;;;;;;4978145;28;20592;-69
2022/08/05 09:18:39;;;;;;;2.97;2.67;;;;;;;;;;4989996;28;20268;-68
2022/08/05 09:21:07;;;;;;;2.63;2.50;;;;;;;;;;4987990;28;20298;-66
2022/08/05 09:23:34;;;;;;;3.17;2.50;;;;;;;;;;4977268;28;20245;-66
2022/08/05 09:26:08;;;;;;;3.58;2.58;;;;;;;;;;4973980;28;20206;-66
2022/08/05 09:28:36;;;;;;;2.70;2.50;;;;;;;;;;4989465;28;20213;-67
2022/08/05 09:31:05;;;;;;;2.40;2.30;;;;;;;;;;4976387;28;20746;-67
2022/08/05 09:33:34;;;;;;;2.08;1.98;;;;;;;;;;4970228;28;20316;-67
2022/08/05 09:36:01;;;;;;;2.17;2.05;;;;;;;;;;4971533;28;20229;-67
2022/08/05 09:38:29;;;;;;;3.13;2.40;;;;;;;;;;4990095;28;20206;-67
2022/08/05 09:41:02;;;;;;;2.50;2.25;;;;;;;;;;4990434;28;20217;-67
2022/08/05 09:43:31;;;;;;;2.08;1.98;;;;;;;;;;4990076;28;20213;-67
2022/08/05 09:45:58;;;;;;;2.25;2.13;;;;;;;;;;4990386;28;20669;-67
2022/08/05 09:48:27;;;;;;;2.42;2.30;;;;;;;;;;4972444;28;20267;-67
2022/08/05 09:50:55;;;;;;;2.03;1.92;;;;;;;;;;4970720;28;20215;-67
2022/08/05 09:53:22;;;;;;;2.08;1.92;;;;;;;;;;4987502;28;20217;-67
2022/08/05 09:55:52;;;;;;;1.90;1.83;;;;;;;;;;4995927;28;20299;-67
2022/08/05 09:58:19;;;;;;;2.20;2.10;;;;;;;;;;4994442;28;20209;-67
2022/08/05 10:00:53;;;;;;;2.05;2.03;;;;;;;;;;4989702;28;20209;-67
2022/08/05 10:03:21;;;;;;;2.55;1.90;;;;;;;;;;5000245;28;20722;-66
2022/08/05 10:06:00;;;;;;;2.40;2.30;;;;;;;;;;4970566;28;20233;-67
2022/08/05 10:08:27;;;;;;;2.40;2.30;;;;;;;;;;4980052;28;20211;-64
2022/08/05 10:10:54;;;;;;;1.90;1.80;;;;;;;;;;4980294;28;20217;-65
2022/08/05 10:13:30;;;;;;;3.60;1.85;;;;;;;;;;4973228;28;20214;-66
2022/08/05 10:15:59;;;;;;;1.80;1.80;;;;;;;;;;4969545;28;20226;-66
2022/08/05 10:18:26;;;;;;;2.00;2.00;;;;;;;;;;4969991;28;20241;-63
2022/08/05 10:20:56;;;;;;;2.15;2.05;;;;;;;;;;4970249;28;20223;-63
2022/08/05 10:23:24;;;;;;;2.63;2.42;;;;;;;;;;4975249;28;20297;-63
2022/08/05 10:25:51;;;;;;;3.20;1.98;;;;;;;;;;4971462;28;20260;-63
2022/08/05 10:28:19;;;;;;;5.75;2.00;;;;;;;;;;4987783;28;20209;-63
2022/08/05 10:30:46;;;;;;;2.10;2.10;;;;;;;;;;4985838;28;20665;-63
2022/08/05 10:33:13;;;;;;;2.05;1.95;;;;;;;;;;4980297;28;20362;-64
2022/08/05 10:35:40;;;;;;;2.40;2.00;;;;;;;;;;4981748;28;20578;-63
2022/08/05 10:38:09;;;;;;;2.30;2.20;;;;;;;;;;4982404;28;20264;-65
2022/08/05 10:40:38;;;;;;;2.30;2.10;;;;;;;;;;4987621;28;20304;-64
2022/08/05 10:43:09;;;;;;;1.83;1.83;;;;;;;;;;4997435;28;20244;-66
2022/08/05 10:45:36;;;;;;;2.05;2.03;;;;;;;;;;4987809;28;20624;-67
2022/08/05 10:48:33;;;;;;;1.88;1.88;;;;;;;;;;4987665;28;20370;-66
2022/08/05 10:51:02;;;;;;;3.35;1.92;;;;;;;;;;4914115;29;20633;-66
2022/08/05 10:53:38;;;;;;;2.20;2.10;;;;;;;;;;4963832;28;20269;-66
2022/08/05 10:56:06;;;;;;;2.35;1.70;;;;;;;;;;4986079;28;20228;-67
2022/08/05 10:58:34;;;;;;;2.55;1.98;;;;;;;;;;5012571;28;20260;-67
2022/08/05 11:01:04;;;;;;;2.67;1.98;;;;;;;;;;5012444;28;20295;-67
2022/08/05 11:03:31;;;;;;;1.98;1.92;;;;;;;;;;4982998;28;20207;-68
2022/08/05 11:06:09;;;;;;;1.88;1.88;;;;;;;;;;4973386;28;20214;-67
2022/08/05 11:08:37;;;;;;;2.70;2.58;;;;;;;;;;4973174;28;20210;-67
2022/08/05 11:11:23;;;;;;;3.95;1.95;;;;;;;;;;4973490;28;20264;-67
2022/08/05 11:13:50;;;;;;;2.30;1.98;;;;;;;;;;4986038;28;20218;-68
2022/08/05 11:16:24;;;;;;;2.20;2.10;;;;;;;;;;4992532;28;20233;-68
2022/08/05 11:19:06;;;;;;;2.50;2.30;;;;;;;;;;4986901;28;20206;-68
2022/08/05 11:21:33;;;;;;;2.30;2.05;;;;;;;;;;4974389;28;20206;-68
2022/08/05 11:24:08;;;;;;;2.00;1.90;;;;;;;;;;4980422;28;20356;-69
2022/08/05 11:26:35;;;;;;;2.22;2.10;;;;;;;;;;4991457;28;20217;-68
2022/08/05 11:29:03;;;;;;;2.28;2.17;;;;;;;;;;4991900;28;20241;-68
2022/08/05 11:31:31;;;;;;;2.10;2.00;;;;;;;;;;4992301;28;20220;-68
2022/08/05 11:34:00;;;;;;;1.92;1.92;;;;;;;;;;4991724;28;20313;-68
2022/08/05 11:36:47;;;;;;;2.28;1.90;;;;;;;;;;4992233;28;20292;-67
2022/08/05 11:39:17;;;;;;;2.15;1.90;;;;;;;;;;4992227;28;20213;-67
2022/08/05 11:41:50;;;;;;;2.25;2.20;;;;;;;;;;4990507;28;20692;-68
2022/08/05 11:44:19;;;;;;;2.08;2.03;;;;;;;;;;4991261;28;20775;-67
2022/08/05 11:46:48;;;;;;;2.30;2.20;;;;;;;;;;4984942;28;20600;-68
2022/08/05 11:49:15;;;;;;;4.28;2.22;;;;;;;;;;4972168;28;20250;-67
2022/08/05 11:51:43;;;;;;;2.63;2.33;;;;;;;;;;4975617;28;20283;-68
2022/08/05 11:54:11;;;;;;;2.40;2.28;;;;;;;;;;4975497;28;20214;-68
2022/08/05 11:56:46;;;;;;;2.30;2.30;;;;;;;;;;4972809;28;20293;-67
2022/08/05 11:59:13;;;;;;;2.92;2.50;;;;;;;;;;4979425;28;20205;-69
2022/08/05 12:01:52;;;;;;;2.30;2.10;;;;;;;;;;4990357;28;20214;-69
2022/08/05 12:04:19;;;;;;;2.50;2.40;;;;;;;;;;4979730;28;20938;-69
2022/08/05 12:06:46;;;;;;;3.03;2.42;;;;;;;;;;4990322;28;20220;-69
2022/08/05 12:09:15;;;;;;;2.50;2.40;;;;;;;;;;4971532;28;20218;-66
2022/08/05 12:11:44;;;;;;;2.97;2.78;;;;;;;;;;4981471;28;20286;-66
2022/08/05 12:14:12;;;;;;;2.67;2.47;;;;;;;;;;4978821;28;20297;-66
2022/08/05 12:16:40;;;;;;;2.30;2.22;;;;;;;;;;4980650;28;20233;-66
2022/08/05 12:19:09;;;;;;;2.25;2.03;;;;;;;;;;4981689;28;20203;-67
2022/08/05 12:21:37;;;;;;;2.65;2.55;;;;;;;;;;4983652;28;20804;-66
2022/08/05 12:24:05;;;;;;;2.25;2.20;;;;;;;;;;4991346;28;20217;-65
2022/08/05 12:26:33;;;;;;;2.35;2.25;;;;;;;;;;4983768;28;20219;-71
2022/08/05 12:29:03;;;;;;;4.18;2.40;;;;;;;;;;4986393;28;20207;-67
2022/08/05 12:31:32;;;;;;;2.70;2.58;;;;;;;;;;4988005;28;20683;-70
2022/08/05 12:34:01;;;;;;;2.55;2.53;;;;;;;;;;4984745;28;20206;-68
2022/08/05 12:36:28;;;;;;;2.70;2.50;;;;;;;;;;4983361;28;20609;-69
2022/08/05 12:38:55;;;;;;;2.50;2.50;;;;;;;;;;4987920;28;20218;-69
2022/08/05 12:41:22;;;;;;;2.63;2.53;;;;;;;;;;4988384;28;20210;-70
2022/08/05 12:43:51;;;;;;;3.03;2.72;;;;;;;;;;4981896;28;20214;-66
2022/08/05 12:46:21;;;;;;;2.40;2.40;;;;;;;;;;4981713;28;20565;-67
2022/08/05 12:49:01;;;;;;;2.72;2.63;;;;;;;;;;4986865;28;20403;-67
2022/08/05 12:51:30;;;;;;;3.25;2.72;;;;;;;;;;4983852;28;20207;-68
2022/08/05 12:54:01;;;;;;;7.15;2.85;;;;;;;;;;4980636;28;20479;-67
2022/08/05 12:56:29;;;;;;;2.80;2.60;;;;;;;;;;4972072;28;20231;-67
2022/08/05 13:01:58;;;;;;;3.10;3.00;;;;;;;;;;4965809;28;20209;-67
2022/08/05 13:04:28;;;;;;;2.67;2.58;;;;;;;;;;4978838;28;20589;-66
2022/08/05 13:06:57;;;;;;;3.33;3.13;;;;;;;;;;4987266;28;20232;-67
2022/08/05 13:09:25;;;;;;;3.30;3.10;;;;;;;;;;4990102;28;20210;-66
2022/08/05 13:11:52;;;;;;;3.38;3.28;;;;;;;;;;4972985;28;20297;-67
2022/08/05 13:14:20;;;;;;;3.55;3.30;;;;;;;;;;4982157;28;20210;-71
2022/08/05 13:16:51;;;;;;;3.50;3.30;;;;;;;;;;4979589;28;20305;-66
2022/08/05 13:19:20;;;;;;;3.50;3.30;;;;;;;;;;4973350;28;20202;-65
2022/08/05 13:21:48;;;;;;;3.13;3.03;;;;;;;;;;4980411;28;20251;-66
2022/08/05 13:24:16;;;;;;;3.35;3.15;;;;;;;;;;5008638;28;20622;-66
2022/08/05 13:26:44;;;;;;;3.25;3.15;;;;;;;;;;4988248;28;20207;-64
2022/08/05 13:29:11;;;;;;;3.10;2.95;;;;;;;;;;4986318;28;20417;-64
2022/08/05 13:31:38;;;;;;;3.60;3.25;;;;;;;;;;4986831;28;20605;-65
2022/08/05 13:34:05;;;;;;;4.20;3.90;;;;;;;;;;4976878;28;20511;-64
2022/08/05 13:36:33;;;;;;;3.20;3.00;;;;;;;;;;4976283;28;20635;-69
2022/08/05 13:39:01;;;;;;;3.33;3.13;;;;;;;;;;4970119;28;20813;-63
2022/08/05 13:41:28;;;;;;;3.15;3.05;;;;;;;;;;4980202;28;20234;-64
2022/08/05 13:43:55;;;;;;;2.80;2.60;;;;;;;;;;4982679;28;20272;-63
2022/08/05 13:46:22;;;;;;;2.67;2.65;;;;;;;;;;4984066;28;20253;-62
2022/08/05 13:48:49;;;;;;;5.53;3.15;;;;;;;;;;4968347;28;20336;-63
2022/08/05 13:51:25;;;;;;;4.55;3.53;;;;;;;;;;5000527;28;20210;-63
2022/08/05 13:53:52;;;;;;;2.95;2.88;;;;;;;;;;5009531;28;20212;-62
2022/08/05 13:56:21;;;;;;;3.60;3.38;;;;;;;;;;5008993;28;20229;-63
2022/08/05 13:58:47;;;;;;;3.90;3.80;;;;;;;;;;5009344;28;20209;-63
2022/08/05 14:01:15;;;;;;;3.95;3.80;;;;;;;;;;5008351;28;20216;-64
2022/08/05 14:03:42;;;;;;;3.88;3.67;;;;;;;;;;4995495;28;20212;-63
2022/08/05 14:06:08;;;;;;;3.97;3.83;;;;;;;;;;4984855;28;20210;-63
2022/08/05 14:08:35;;;;;;;4.50;4.20;;;;;;;;;;4975767;28;20205;-64
2022/08/05 14:11:02;;;;;;;4.93;4.45;;;;;;;;;;4989566;28;20260;-63
2022/08/05 14:13:30;;;;;;;5.38;5.07;;;;;;;;;;4988934;28;20675;-64
2022/08/05 14:15:57;;;;;;;5.65;5.25;;;;;;;;;;4988986;28;20225;-64
2022/08/05 14:18:24;;;;;;;5.57;5.13;;;;;;;;;;4988072;28;20217;-64
2022/08/05 14:20:51;;;;;;;4.80;4.50;;;;;;;;;;4984252;28;20669;-65
2022/08/05 14:23:18;;;;;;;4.93;4.53;;;;;;;;;;4988536;28;20490;-64
2022/08/05 14:25:45;;;;;;;5.63;5.22;;;;;;;;;;4988828;28;20256;-64
2022/08/05 14:28:12;;;;;;;6.28;5.78;;;;;;;;;;4988900;28;20233;-64
2022/08/05 14:30:41;;;;;;;5.38;4.97;;;;;;;;;;4989325;28;20213;-64
2022/08/05 14:33:08;;;;;;;7.47;6.88;;;;;;;;;;4980603;28;20206;-64
2022/08/05 14:35:35;;;;;;;11.10;8.65;;;;;;;;;;4982431;28;20230;-65
2022/08/05 14:38:02;;;;;;;9.63;8.35;;;;;;;;;;4986083;28;20268;-64
2022/08/05 14:40:29;;;;;;;10.38;9.27;;;;;;;;;;4992819;28;20619;-64
2022/08/05 14:42:56;;;;;;;12.85;9.18;;;;;;;;;;4979386;28;20202;-65
2022/08/05 14:45:23;;;;;;;12.32;10.82;;;;;;;;;;4981292;28;20235;-64
2022/08/05 14:47:52;;;;;;;11.80;10.40;;;;;;;;;;4974248;28;20211;-65
2022/08/05 14:50:19;;;;;;;11.10;9.18;;;;;;;;;;4987242;28;20310;-66
2022/08/05 14:52:46;;;;;;;12.43;11.13;;;;;;;;;;4990324;28;20257;-64
2022/08/05 14:55:13;;;;;;;14.30;12.55;;;;;;;;;;4992418;28;20260;-65
2022/08/05 14:57:40;;;;;;;16.52;12.35;;;;;;;;;;4990768;28;20209;-66